Time;durP1;ratioP1;P1;durP2;ratioP2;P2;SDS_P1;SDS_P2;PMS_P1;PMS_P2;Temp;Humidity;BMP_temperature;BMP_pressure;BME280_temperature;BME280_humidity;BME280_pressure;Samples;Min_cycle;Max_cycle;Signal;HPM_P1;HPM_P2
2021/08/21 00:00:48;;;;;;;5.18;3.55;;;16.20;99.90;;;;;;4174181;28;20029;-66
2021/08/21 00:02:49;;;;;;;6.15;3.50;;;16.20;99.90;;;;;;4175528;28;20443;-66
2021/08/21 00:04:51;;;;;;;7.05;2.90;;;16.20;99.90;;;;;;4173608;28;20072;-65
2021/08/21 00:06:52;;;;;;;6.30;3.08;;;16.20;99.90;;;;;;4175191;28;20020;-65
2021/08/21 00:08:53;;;;;;;4.80;2.47;;;16.30;99.90;;;;;;4173759;28;20032;-65
2021/08/21 00:10:54;;;;;;;4.90;3.15;;;16.30;99.90;;;;;;4175760;28;20025;-65
2021/08/21 00:12:56;;;;;;;7.07;3.25;;;16.30;99.90;;;;;;4173631;28;20044;-65
2021/08/21 00:14:59;;;;;;;3.85;2.65;;;16.30;99.90;;;;;;4175834;28;20071;-65
2021/08/21 00:17:01;;;;;;;5.95;3.03;;;16.30;99.90;;;;;;4173767;28;20025;-65
2021/08/21 00:19:03;;;;;;;3.10;2.63;;;16.30;99.90;;;;;;4174909;28;20547;-65
2021/08/21 00:21:04;;;;;;;3.97;2.92;;;16.40;99.90;;;;;;4173187;28;21091;-65
2021/08/21 00:23:05;;;;;;;4.68;3.25;;;16.40;99.90;;;;;;4174417;28;20037;-65
2021/08/21 00:25:08;;;;;;;5.93;2.97;;;16.30;99.90;;;;;;4173435;28;20422;-64
2021/08/21 00:27:09;;;;;;;5.35;2.63;;;16.40;99.90;;;;;;4173846;28;20440;-65
2021/08/21 00:29:12;;;;;;;3.95;3.15;;;16.40;99.90;;;;;;4158862;28;20034;-65
2021/08/21 00:31:13;;;;;;;7.25;3.03;;;16.40;99.90;;;;;;4157146;28;20037;-65
2021/08/21 00:33:14;;;;;;;5.15;3.05;;;16.30;99.90;;;;;;4173372;28;20049;-65
2021/08/21 00:35:16;;;;;;;5.63;2.83;;;16.30;99.90;;;;;;4173402;28;20037;-65
2021/08/21 00:37:17;;;;;;;4.30;3.20;;;16.30;99.90;;;;;;4174925;28;20041;-65
2021/08/21 00:39:18;;;;;;;6.05;2.85;;;16.30;99.90;;;;;;4173093;28;20087;-65
2021/08/21 00:41:19;;;;;;;5.13;2.88;;;16.30;99.90;;;;;;4174232;28;20045;-65
2021/08/21 00:43:20;;;;;;;6.25;2.72;;;16.30;99.90;;;;;;4171520;28;20037;-65
2021/08/21 00:45:22;;;;;;;3.47;2.42;;;16.20;99.90;;;;;;4174911;28;20128;-65
2021/08/21 00:47:23;;;;;;;4.65;3.28;;;16.20;99.90;;;;;;4173137;28;20033;-64
2021/08/21 00:49:24;;;;;;;4.00;3.15;;;16.20;99.90;;;;;;4175073;28;20067;-66
2021/08/21 00:51:25;;;;;;;4.95;2.80;;;16.20;99.90;;;;;;4173063;28;20473;-65
2021/08/21 00:53:27;;;;;;;5.97;3.30;;;16.20;99.90;;;;;;4174424;28;20095;-65
2021/08/21 00:55:28;;;;;;;5.53;2.80;;;16.20;99.90;;;;;;4172904;28;20048;-65
2021/08/21 00:57:30;;;;;;;6.75;3.85;;;16.10;99.90;;;;;;4174042;28;20091;-64
2021/08/21 00:59:36;;;;;;;4.43;2.67;;;16.10;99.90;;;;;;4173666;28;20048;-65
2021/08/21 01:01:38;;;;;;;4.45;2.75;;;16.10;99.90;;;;;;4172218;28;20055;-65
2021/08/21 01:03:39;;;;;;;6.72;2.55;;;16.10;99.90;;;;;;4173640;28;20493;-65
2021/08/21 01:05:40;;;;;;;4.13;2.63;;;16.10;99.90;;;;;;4173112;28;20067;-65
2021/08/21 01:07:42;;;;;;;4.05;2.83;;;16.10;99.90;;;;;;4173841;28;20092;-64
2021/08/21 01:09:43;;;;;;;5.13;2.92;;;16.20;99.90;;;;;;4172555;28;20028;-64
2021/08/21 01:11:46;;;;;;;5.95;2.85;;;16.10;99.90;;;;;;4174321;28;20478;-64
2021/08/21 01:13:47;;;;;;;3.40;2.67;;;16.10;99.90;;;;;;4164227;28;20072;-65
2021/08/21 01:15:48;;;;;;;4.45;2.67;;;16.10;99.90;;;;;;4157848;28;20084;-65
2021/08/21 01:17:51;;;;;;;7.80;2.58;;;16.10;99.90;;;;;;4156552;28;20903;-65
2021/08/21 01:19:53;;;;;;;4.05;2.80;;;16.10;99.90;;;;;;4157557;28;20042;-65
2021/08/21 01:21:54;;;;;;;5.53;2.65;;;16.10;99.90;;;;;;4155661;28;20363;-65
2021/08/21 01:23:55;;;;;;;3.63;2.60;;;16.10;99.90;;;;;;4157541;28;20030;-65
2021/08/21 01:25:56;;;;;;;4.60;3.10;;;16.10;99.90;;;;;;4155970;28;20033;-65
2021/08/21 01:27:58;;;;;;;3.50;2.95;;;16.00;99.90;;;;;;4157352;28;20021;-65
2021/08/21 01:30:00;;;;;;;4.97;3.08;;;16.00;99.90;;;;;;4187368;28;20044;-64
2021/08/21 01:32:01;;;;;;;6.47;3.03;;;15.90;99.90;;;;;;4157035;28;20042;-65
2021/08/21 01:34:02;;;;;;;4.32;2.90;;;15.90;99.90;;;;;;4155998;28;20037;-65
2021/08/21 01:36:04;;;;;;;6.18;2.63;;;15.90;99.90;;;;;;4156052;28;20030;-65
2021/08/21 01:38:06;;;;;;;3.97;2.85;;;15.90;99.90;;;;;;4156951;28;20037;-66
2021/08/21 01:40:07;;;;;;;3.80;2.65;;;15.90;99.90;;;;;;4155799;28;20535;-65
2021/08/21 01:42:08;;;;;;;6.50;2.90;;;15.90;99.90;;;;;;4157267;28;20087;-65
2021/08/21 01:44:11;;;;;;;3.78;2.75;;;16.00;99.90;;;;;;4156250;28;20029;-65
2021/08/21 01:46:12;;;;;;;3.10;2.33;;;16.00;99.90;;;;;;4157419;28;20427;-65
2021/08/21 01:48:14;;;;;;;5.63;2.85;;;16.00;99.90;;;;;;4155855;28;20890;-66
2021/08/21 01:50:18;;;;;;;4.38;2.88;;;16.00;99.90;;;;;;4157200;28;20079;-65
2021/08/21 01:52:19;;;;;;;4.30;2.83;;;16.00;99.90;;;;;;4155549;28;20037;-65
2021/08/21 01:54:21;;;;;;;4.20;2.95;;;16.00;99.90;;;;;;4157330;28;20071;-65
2021/08/21 01:56:23;;;;;;;4.28;3.03;;;15.90;99.90;;;;;;4155696;28;20482;-65
2021/08/21 01:58:24;;;;;;;5.22;2.63;;;15.90;99.90;;;;;;4157101;28;20033;-65
2021/08/21 02:00:28;;;;;;;6.13;2.53;;;15.90;99.90;;;;;;4155872;28;20075;-65
2021/08/21 02:02:29;;;;;;;5.07;2.78;;;15.90;99.90;;;;;;4156595;28;20553;-65
2021/08/21 02:04:30;;;;;;;5.57;3.85;;;15.90;99.90;;;;;;4155720;28;20355;-65
2021/08/21 02:06:31;;;;;;;5.55;2.65;;;15.80;99.90;;;;;;4155903;28;20029;-65
2021/08/21 02:08:32;;;;;;;9.13;2.65;;;15.80;99.90;;;;;;4157125;28;20497;-65
2021/08/21 02:10:33;;;;;;;4.47;2.75;;;15.80;99.90;;;;;;4155695;28;20099;-65
2021/08/21 02:12:35;;;;;;;3.50;2.50;;;15.80;99.90;;;;;;4156929;28;20033;-66
2021/08/21 02:14:36;;;;;;;4.20;2.75;;;15.80;99.90;;;;;;4170890;28;20037;-65
2021/08/21 02:16:37;;;;;;;4.80;2.95;;;15.80;99.90;;;;;;4156833;28;20577;-66
2021/08/21 02:18:38;;;;;;;2.60;2.25;;;15.80;99.90;;;;;;4155035;28;20065;-65
2021/08/21 02:20:39;;;;;;;5.53;3.08;;;15.80;99.90;;;;;;4157142;28;20033;-65
2021/08/21 02:22:42;;;;;;;4.43;3.47;;;15.90;99.90;;;;;;4155356;28;20793;-65
2021/08/21 02:24:51;;;;;;;5.07;2.80;;;15.80;99.90;;;;;;4157064;28;20095;-65
2021/08/21 02:27:01;;;;;;;4.80;2.70;;;15.90;99.90;;;;;;4155427;28;20925;-64
2021/08/21 02:29:02;;;;;;;4.63;2.95;;;15.90;99.90;;;;;;4156782;28;20471;-65
2021/08/21 02:31:03;;;;;;;3.33;2.58;;;15.90;99.90;;;;;;4155216;28;20498;-65
2021/08/21 02:33:05;;;;;;;3.25;2.65;;;15.80;99.90;;;;;;4156734;28;20112;-66
2021/08/21 02:35:07;;;;;;;5.32;3.38;;;15.80;99.90;;;;;;4155483;28;20888;-66
2021/08/21 02:37:08;;;;;;;4.53;3.40;;;15.80;99.90;;;;;;4156545;28;20568;-65
2021/08/21 02:39:09;;;;;;;6.05;2.60;;;15.70;99.90;;;;;;4155674;28;20049;-65
2021/08/21 02:41:11;;;;;;;4.68;2.95;;;15.70;99.90;;;;;;4170831;28;20456;-66
2021/08/21 02:43:13;;;;;;;5.88;2.97;;;15.70;99.90;;;;;;4172636;28;20102;-65
2021/08/21 02:45:14;;;;;;;5.03;3.00;;;15.70;99.90;;;;;;4172471;28;20044;-66
2021/08/21 02:47:15;;;;;;;6.28;2.88;;;15.60;99.90;;;;;;4176274;28;20032;-65
2021/08/21 02:49:17;;;;;;;8.70;3.13;;;15.60;99.90;;;;;;4174725;28;20037;-65
2021/08/21 02:51:18;;;;;;;4.25;3.05;;;15.60;99.90;;;;;;4176232;28;20025;-65
2021/08/21 02:53:19;;;;;;;4.35;2.55;;;15.60;99.90;;;;;;4174900;28;20037;-66
2021/08/21 02:55:20;;;;;;;4.63;2.83;;;15.60;99.90;;;;;;4176342;28;20037;-65
2021/08/21 02:57:21;;;;;;;6.30;3.03;;;15.60;99.90;;;;;;4174552;28;20040;-65
2021/08/21 02:59:23;;;;;;;3.50;2.65;;;15.60;99.90;;;;;;4175871;28;20049;-65
2021/08/21 03:01:24;;;;;;;4.93;3.13;;;15.60;99.90;;;;;;4174517;28;20106;-65
2021/08/21 03:03:25;;;;;;;5.80;2.78;;;15.60;99.90;;;;;;4175868;28;20071;-66
2021/08/21 03:05:26;;;;;;;5.45;3.20;;;15.50;99.90;;;;;;4174684;28;20025;-66
2021/08/21 03:07:27;;;;;;;7.93;3.28;;;15.50;99.90;;;;;;4175854;28;20029;-66
2021/08/21 03:09:28;;;;;;;5.57;3.28;;;15.30;99.90;;;;;;4175202;28;20517;-65
2021/08/21 03:11:29;;;;;;;4.25;2.88;;;15.30;99.90;;;;;;4175268;28;20036;-66
2021/08/21 03:13:31;;;;;;;6.13;3.05;;;15.20;99.90;;;;;;4175403;28;20087;-65
2021/08/21 03:15:32;;;;;;;7.03;3.42;;;15.10;99.90;;;;;;4173312;28;20049;-66
2021/08/21 03:17:33;;;;;;;6.35;3.10;;;15.10;99.90;;;;;;4175300;28;20083;-66
2021/08/21 03:19:34;;;;;;;4.70;2.97;;;15.00;99.90;;;;;;4174206;28;20110;-65
2021/08/21 03:21:35;;;;;;;5.80;3.10;;;14.90;99.90;;;;;;4175719;28;20493;-64
2021/08/21 03:23:38;;;;;;;4.25;3.50;;;14.90;99.90;;;;;;4174924;28;20041;-65
2021/08/21 03:25:39;;;;;;;5.25;3.70;;;14.80;99.90;;;;;;4175438;28;20455;-65
2021/08/21 03:27:40;;;;;;;4.97;3.10;;;14.70;99.90;;;;;;4174246;28;20033;-65
2021/08/21 03:29:41;;;;;;;4.17;3.30;;;14.70;99.90;;;;;;4175625;28;20058;-65
2021/08/21 03:31:42;;;;;;;5.85;3.17;;;14.70;99.90;;;;;;4162645;28;20096;-65
2021/08/21 03:33:44;;;;;;;4.70;2.70;;;14.70;99.90;;;;;;4159092;28;20054;-65
2021/08/21 03:35:46;;;;;;;6.22;3.10;;;14.80;99.90;;;;;;4157560;28;20030;-65
2021/08/21 03:37:47;;;;;;;4.40;2.97;;;14.80;99.90;;;;;;4158819;28;20103;-65
2021/08/21 03:39:49;;;;;;;5.03;3.13;;;14.80;99.90;;;;;;4157655;28;20045;-65
2021/08/21 03:41:50;;;;;;;4.37;3.10;;;14.80;99.90;;;;;;4158820;28;20151;-66
2021/08/21 03:43:51;;;;;;;4.97;3.23;;;14.80;99.90;;;;;;4158432;28;20896;-65
2021/08/21 03:45:52;;;;;;;4.60;3.17;;;14.80;99.90;;;;;;4158471;28;20083;-65
2021/08/21 03:47:53;;;;;;;5.33;3.50;;;14.80;99.90;;;;;;4158191;28;20029;-65
2021/08/21 03:49:54;;;;;;;4.33;2.97;;;14.70;99.90;;;;;;4157517;28;20087;-65
2021/08/21 03:51:55;;;;;;;7.85;3.50;;;14.70;99.90;;;;;;4158451;28;20033;-65
2021/08/21 03:53:56;;;;;;;6.53;3.40;;;14.60;99.90;;;;;;4157292;28;20084;-65
2021/08/21 03:55:58;;;;;;;9.00;3.60;;;14.70;99.90;;;;;;4158500;28;20508;-65
2021/08/21 03:58:00;;;;;;;7.63;3.30;;;14.80;99.90;;;;;;4157303;28;20026;-64
2021/08/21 04:00:03;;;;;;;6.23;3.23;;;14.90;99.90;;;;;;4159832;28;20124;-65
2021/08/21 04:02:04;;;;;;;6.20;3.23;;;15.00;99.90;;;;;;4157442;28;21032;-65
2021/08/21 04:04:05;;;;;;;4.50;3.03;;;15.10;99.90;;;;;;4158804;28;20540;-65
2021/08/21 04:06:07;;;;;;;7.03;3.67;;;15.30;99.90;;;;;;4157270;28;20403;-65
2021/08/21 04:08:09;;;;;;;6.03;2.97;;;15.50;99.90;;;;;;4158267;28;20450;-64
2021/08/21 04:10:10;;;;;;;3.78;3.08;;;15.60;99.90;;;;;;4156986;28;20033;-65
2021/08/21 04:12:16;;;;;;;10.73;3.50;;;15.70;99.90;;;;;;4158311;28;20096;-65
2021/08/21 04:14:17;;;;;;;7.30;3.63;;;16.00;99.90;;;;;;4157520;28;20091;-65
2021/08/21 04:16:18;;;;;;;5.95;3.47;;;16.40;99.90;;;;;;4157903;28;20042;-65
2021/08/21 04:18:20;;;;;;;4.40;3.40;;;16.80;99.90;;;;;;4157568;28;20045;-66
2021/08/21 04:20:21;;;;;;;7.35;3.78;;;17.10;99.90;;;;;;4157010;28;20053;-65
2021/08/21 04:22:22;;;;;;;7.32;3.40;;;17.10;99.90;;;;;;4157883;28;20099;-65
2021/08/21 04:24:23;;;;;;;4.82;3.65;;;17.10;99.90;;;;;;4156691;28;20615;-65
2021/08/21 04:26:26;;;;;;;6.75;3.30;;;17.20;99.90;;;;;;4158639;28;20041;-65
2021/08/21 04:28:29;;;;;;;8.43;3.83;;;17.60;99.90;;;;;;4173180;28;20095;-65
2021/08/21 04:30:30;;;;;;;9.85;3.22;;;17.70;99.90;;;;;;4174606;28;20036;-65
2021/08/21 04:32:31;;;;;;;4.32;3.20;;;18.20;99.90;;;;;;4172946;28;20439;-65
2021/08/21 04:34:34;;;;;;;5.22;3.17;;;18.40;99.90;;;;;;4174580;28;20056;-66
2021/08/21 04:36:35;;;;;;;10.80;4.15;;;18.30;99.90;;;;;;4172633;28;20143;-64
2021/08/21 04:38:37;;;;;;;5.75;3.30;;;18.30;99.90;;;;;;4173616;28;20099;-65
2021/08/21 04:40:38;;;;;;;6.70;3.33;;;18.70;99.90;;;;;;4172567;28;19913;-65
2021/08/21 04:42:40;;;;;;;7.70;3.13;;;19.20;99.90;;;;;;4174447;28;20071;-64
2021/08/21 04:44:41;;;;;;;6.68;3.78;;;19.50;99.90;;;;;;4173472;28;20021;-65
2021/08/21 04:46:42;;;;;;;8.70;4.50;;;19.80;99.90;;;;;;4173155;28;20103;-64
2021/08/21 04:48:43;;;;;;;5.72;3.42;;;20.10;99.90;;;;;;4164571;28;20033;-64
2021/08/21 04:50:44;;;;;;;6.88;2.90;;;20.50;99.90;;;;;;4156944;28;20045;-64
2021/08/21 04:52:45;;;;;;;8.38;3.40;;;20.80;99.60;;;;;;4157680;28;20037;-66
2021/08/21 04:54:47;;;;;;;3.28;2.70;;;21.20;99.30;;;;;;4155920;28;20029;-65
2021/08/21 04:56:48;;;;;;;7.57;3.10;;;21.70;98.60;;;;;;4189381;28;20066;-66
2021/08/21 04:58:49;;;;;;;5.80;3.05;;;22.30;97.70;;;;;;4156343;28;20038;-65
2021/08/21 05:00:52;;;;;;;5.10;2.95;;;22.70;96.90;;;;;;4157843;28;20095;-65
2021/08/21 05:02:54;;;;;;;7.85;3.95;;;22.90;96.30;;;;;;4156197;28;20475;-66
2021/08/21 05:04:55;;;;;;;6.38;3.05;;;22.90;96.00;;;;;;4157232;28;20436;-65
2021/08/21 05:06:56;;;;;;;8.30;4.28;;;23.30;95.40;;;;;;4155874;28;20022;-65
2021/08/21 05:08:58;;;;;;;7.38;3.60;;;23.80;94.70;;;;;;4156793;28;20662;-66
2021/08/21 05:10:59;;;;;;;4.72;2.95;;;23.90;94.10;;;;;;4155859;28;20045;-65
2021/08/21 05:13:00;;;;;;;8.80;3.17;;;24.10;93.60;;;;;;4157070;28;20029;-65
2021/08/21 05:15:01;;;;;;;6.60;2.95;;;24.30;93.30;;;;;;4156943;28;20037;-66
2021/08/21 05:17:05;;;;;;;4.45;2.50;;;24.20;92.70;;;;;;4156992;28;20375;-66
2021/08/21 05:19:25;;;;;;;5.55;2.70;;;24.20;92.50;;;;;;4157046;28;20033;-65
2021/08/21 05:21:32;;;;;;;4.65;2.88;;;24.10;92.20;;;;;;4156823;28;20076;-66
2021/08/21 05:23:42;;;;;;;4.70;2.58;;;24.20;92.10;;;;;;4156375;28;20022;-65
2021/08/21 05:25:46;;;;;;;4.53;2.80;;;24.60;91.50;;;;;;4156528;28;20033;-66
2021/08/21 05:27:47;;;;;;;4.00;2.40;;;24.40;91.50;;;;;;4161732;28;20477;-65
2021/08/21 05:29:49;;;;;;;6.32;2.65;;;24.50;91.30;;;;;;4172757;28;20090;-66
2021/08/21 05:31:51;;;;;;;2.67;2.33;;;24.80;91.00;;;;;;4172537;28;20864;-65
2021/08/21 05:33:52;;;;;;;6.10;2.67;;;24.70;90.50;;;;;;4172317;28;20060;-66
2021/08/21 05:35:54;;;;;;;6.13;2.50;;;24.60;90.50;;;;;;4173133;28;20063;-64
2021/08/21 05:37:55;;;;;;;4.20;2.63;;;24.20;90.70;;;;;;4171543;28;20091;-65
2021/08/21 05:39:56;;;;;;;6.20;2.33;;;24.30;90.70;;;;;;4173395;28;20056;-66
2021/08/21 05:42:00;;;;;;;6.68;2.90;;;24.50;90.40;;;;;;4171874;28;20896;-66
2021/08/21 05:44:02;;;;;;;3.60;2.17;;;24.60;90.00;;;;;;4173335;28;20338;-66
2021/08/21 05:46:03;;;;;;;6.88;2.20;;;24.80;89.70;;;;;;4172112;28;20059;-65
2021/08/21 05:48:04;;;;;;;3.15;2.50;;;25.30;88.70;;;;;;4164931;28;20026;-66
2021/08/21 05:50:06;;;;;;;5.78;2.58;;;25.50;87.50;;;;;;4155029;28;20091;-65
2021/08/21 05:52:07;;;;;;;5.05;2.70;;;25.50;87.00;;;;;;4167005;28;20070;-66
2021/08/21 05:54:08;;;;;;;3.83;2.47;;;25.90;86.60;;;;;;4155414;28;20111;-65
2021/08/21 05:56:09;;;;;;;2.10;1.90;;;25.90;86.20;;;;;;4156708;28;20045;-65
2021/08/21 05:58:10;;;;;;;7.35;3.08;;;25.50;86.30;;;;;;4155760;28;20021;-63
2021/08/21 06:00:12;;;;;;;5.47;2.60;;;25.10;86.60;;;;;;4157127;28;20439;-65
2021/08/21 06:02:13;;;;;;;4.78;2.45;;;24.50;87.70;;;;;;4155878;28;20030;-65
2021/08/21 06:04:14;;;;;;;5.47;2.85;;;24.10;89.30;;;;;;4155428;28;20042;-64
2021/08/21 06:06:16;;;;;;;3.47;2.58;;;23.60;89.40;;;;;;4156649;28;20029;-65
2021/08/21 06:08:17;;;;;;;3.88;2.45;;;23.30;90.00;;;;;;4155036;28;20045;-65
2021/08/21 06:10:18;;;;;;;7.30;3.00;;;23.10;90.10;;;;;;4164233;28;20041;-63
2021/08/21 06:12:19;;;;;;;6.50;3.17;;;23.20;90.20;;;;;;4171789;28;20539;-64
2021/08/21 06:14:20;;;;;;;7.22;3.72;;;23.80;89.90;;;;;;4173274;28;20029;-65
2021/08/21 06:16:22;;;;;;;6.53;3.38;;;24.30;89.00;;;;;;4172139;28;20466;-65
2021/08/21 06:18:23;;;;;;;3.75;2.90;;;24.60;88.60;;;;;;4160965;28;20087;-65
2021/08/21 06:20:24;;;;;;;5.13;2.72;;;25.00;87.70;;;;;;4154863;28;20132;-65
2021/08/21 06:22:26;;;;;;;8.13;2.90;;;25.10;87.60;;;;;;4156241;28;20094;-64
2021/08/21 06:24:27;;;;;;;7.55;3.28;;;25.10;87.20;;;;;;4155357;28;20091;-65
2021/08/21 06:26:28;;;;;;;5.35;2.60;;;25.00;87.30;;;;;;4156325;28;20084;-64
2021/08/21 06:28:29;;;;;;;5.78;2.92;;;25.00;87.50;;;;;;4155110;28;20029;-64
2021/08/21 06:30:31;;;;;;;8.35;3.28;;;25.00;87.30;;;;;;4155913;28;20033;-65
2021/08/21 06:32:32;;;;;;;5.20;2.95;;;25.40;87.00;;;;;;4155255;28;20072;-62
2021/08/21 06:34:33;;;;;;;6.18;2.88;;;26.00;86.30;;;;;;4171004;28;20509;-62
2021/08/21 06:36:34;;;;;;;7.65;2.55;;;26.40;85.50;;;;;;4171570;28;20025;-64
2021/08/21 06:38:35;;;;;;;7.07;2.60;;;26.20;85.30;;;;;;4171321;28;20033;-66
2021/08/21 06:40:37;;;;;;;7.35;2.70;;;26.50;85.00;;;;;;4169935;28;20099;-62
2021/08/21 06:42:38;;;;;;;3.97;2.20;;;26.80;84.30;;;;;;4159916;28;20067;-67
2021/08/21 06:44:39;;;;;;;7.22;2.90;;;27.00;83.70;;;;;;4159898;28;20078;-64
2021/08/21 06:46:40;;;;;;;2.13;1.95;;;27.00;82.90;;;;;;4157325;28;20034;-64
2021/08/21 06:48:41;;;;;;;5.72;2.13;;;27.20;82.60;;;;;;4157413;28;20049;-64
2021/08/21 06:50:43;;;;;;;3.53;2.40;;;27.40;82.20;;;;;;4156857;28;20041;-63
2021/08/21 06:52:46;;;;;;;5.13;2.47;;;27.40;81.70;;;;;;4159084;28;20059;-64
2021/08/21 06:54:47;;;;;;;5.25;2.88;;;27.20;81.70;;;;;;4156292;28;20126;-66
2021/08/21 06:56:49;;;;;;;3.47;2.30;;;26.90;81.90;;;;;;4158619;28;20194;-64
2021/08/21 06:58:50;;;;;;;2.97;2.17;;;26.60;82.30;;;;;;4155459;28;20053;-67
2021/08/21 07:00:51;;;;;;;5.70;2.40;;;26.20;82.80;;;;;;4157444;28;20103;-62
2021/08/21 07:02:52;;;;;;;5.25;2.45;;;26.00;83.10;;;;;;4157008;28;20091;-62
2021/08/21 07:04:53;;;;;;;5.65;2.35;;;26.10;83.10;;;;;;4159698;28;20090;-63
2021/08/21 07:06:54;;;;;;;7.90;2.40;;;26.30;83.00;;;;;;4163246;28;20067;-62
2021/08/21 07:08:55;;;;;;;4.28;2.17;;;26.40;83.00;;;;;;4171211;28;20517;-62
2021/08/21 07:10:56;;;;;;;2.78;1.98;;;26.10;82.80;;;;;;4159049;28;20436;-64
2021/08/21 07:12:57;;;;;;;4.40;2.30;;;25.90;83.50;;;;;;4158869;28;20044;-65
2021/08/21 07:14:59;;;;;;;4.32;2.10;;;26.00;83.30;;;;;;4158963;28;20041;-64
2021/08/21 07:17:00;;;;;;;6.07;2.55;;;26.00;83.00;;;;;;4156817;28;20049;-66
2021/08/21 07:19:01;;;;;;;4.63;2.45;;;26.10;83.10;;;;;;4157913;28;20567;-66
2021/08/21 07:21:03;;;;;;;8.00;2.28;;;26.40;82.60;;;;;;4171718;28;20049;-65
2021/08/21 07:23:04;;;;;;;4.97;2.17;;;26.70;82.20;;;;;;4158450;28;20041;-64
2021/08/21 07:25:05;;;;;;;8.05;5.25;;;26.70;81.70;;;;;;4155195;28;20540;-65
2021/08/21 07:27:06;;;;;;;4.95;3.05;;;26.60;81.70;;;;;;4157888;28;20083;-65
2021/08/21 07:29:07;;;;;;;3.83;2.75;;;26.40;81.80;;;;;;4157156;28;20021;-62
2021/08/21 07:31:09;;;;;;;3.83;2.45;;;26.60;81.70;;;;;;4158670;28;20142;-64
2021/08/21 07:33:10;;;;;;;5.18;2.28;;;26.90;81.50;;;;;;4160207;28;20045;-65
2021/08/21 07:35:11;;;;;;;5.88;2.30;;;27.20;81.10;;;;;;4163119;28;20103;-64
2021/08/21 07:37:12;;;;;;;8.27;2.55;;;27.40;80.20;;;;;;4173772;28;20102;-64
2021/08/21 07:39:13;;;;;;;5.80;2.40;;;27.50;79.90;;;;;;4174084;28;20074;-64
2021/08/21 07:41:14;;;;;;;5.80;2.80;;;27.40;79.70;;;;;;4161306;28;20103;-64
2021/08/21 07:43:15;;;;;;;5.35;2.30;;;27.10;80.10;;;;;;4162772;28;20131;-63
2021/08/21 07:45:17;;;;;;;4.72;2.55;;;27.00;80.50;;;;;;4160099;28;20588;-64
2021/08/21 07:47:18;;;;;;;6.38;3.05;;;27.00;80.30;;;;;;4159568;28;20018;-66
2021/08/21 07:49:19;;;;;;;8.68;3.20;;;26.90;80.00;;;;;;4161561;28;20671;-64
2021/08/21 07:51:20;;;;;;;8.50;3.00;;;26.60;80.30;;;;;;4162608;28;20048;-62
2021/08/21 07:53:22;;;;;;;5.95;2.58;;;26.30;80.40;;;;;;4164622;28;20453;-65
2021/08/21 07:55:25;;;;;;;5.78;3.30;;;26.10;80.20;;;;;;4173677;28;20078;-65
2021/08/21 07:57:26;;;;;;;9.02;3.00;;;26.00;80.20;;;;;;4174529;28;20048;-63
2021/08/21 07:59:27;;;;;;;11.60;3.30;;;25.80;80.60;;;;;;4173387;28;20025;-63
2021/08/21 08:01:28;;;;;;;6.57;2.92;;;25.70;80.80;;;;;;4174530;28;20095;-64
2021/08/21 08:03:29;;;;;;;8.02;2.60;;;25.60;81.10;;;;;;4173575;28;20126;-63
2021/08/21 08:05:31;;;;;;;6.07;2.70;;;25.70;81.10;;;;;;4174142;28;20527;-65
2021/08/21 08:07:32;;;;;;;14.35;4.43;;;25.90;81.20;;;;;;4174011;28;20091;-67
2021/08/21 08:09:33;;;;;;;9.50;2.72;;;26.20;81.30;;;;;;4173177;28;20480;-63
2021/08/21 08:11:34;;;;;;;5.80;2.67;;;26.50;81.20;;;;;;4174312;28;20114;-63
2021/08/21 08:13:35;;;;;;;6.47;3.05;;;26.80;80.80;;;;;;4172675;28;20033;-64
2021/08/21 08:15:36;;;;;;;10.57;3.20;;;26.70;80.10;;;;;;4174285;28;20040;-63
2021/08/21 08:17:37;;;;;;;7.10;2.70;;;26.50;80.50;;;;;;4173495;28;20579;-63
2021/08/21 08:19:38;;;;;;;6.00;2.78;;;26.40;81.20;;;;;;4174315;28;20087;-63
2021/08/21 08:21:40;;;;;;;10.55;3.38;;;26.50;81.20;;;;;;4173132;28;20029;-63
2021/08/21 08:23:41;;;;;;;6.15;3.38;;;26.70;80.80;;;;;;4174832;28;20078;-63
2021/08/21 08:25:42;;;;;;;9.07;3.05;;;26.80;80.50;;;;;;4172919;28;20047;-66
2021/08/21 08:27:45;;;;;;;8.80;3.45;;;26.90;80.30;;;;;;4174060;28;20025;-66
2021/08/21 08:29:46;;;;;;;5.85;2.97;;;27.00;80.20;;;;;;4172554;28;20025;-67
2021/08/21 08:31:47;;;;;;;5.93;2.72;;;26.80;80.10;;;;;;4173836;28;20078;-66
2021/08/21 08:33:48;;;;;;;12.93;2.85;;;26.80;80.10;;;;;;4172721;28;20608;-66
2021/08/21 08:35:52;;;;;;;6.55;2.50;;;26.40;80.30;;;;;;4173833;28;20110;-67
2021/08/21 08:37:53;;;;;;;7.35;2.92;;;26.20;80.70;;;;;;4173480;28;20067;-68
2021/08/21 08:39:54;;;;;;;7.50;2.90;;;26.00;80.90;;;;;;4172573;28;20021;-66
2021/08/21 08:41:58;;;;;;;6.72;2.47;;;25.70;80.80;;;;;;4173613;28;20094;-66
2021/08/21 08:44:01;;;;;;;4.13;2.78;;;25.40;82.10;;;;;;4172400;28;20091;-66
2021/08/21 08:46:03;;;;;;;8.57;2.97;;;25.10;81.90;;;;;;4173806;28;20092;-65
2021/08/21 08:48:05;;;;;;;6.00;3.35;;;24.80;82.70;;;;;;4172551;28;20095;-65
2021/08/21 08:50:09;;;;;;;6.00;2.60;;;24.80;83.00;;;;;;4174121;28;20029;-67
2021/08/21 08:52:10;;;;;;;7.28;2.70;;;24.80;82.30;;;;;;4172373;28;20481;-65
2021/08/21 08:54:11;;;;;;;13.27;2.65;;;24.90;82.20;;;;;;4173448;28;20032;-68
2021/08/21 08:56:13;;;;;;;6.15;2.50;;;25.20;81.40;;;;;;4171838;28;20078;-68
2021/08/21 08:58:14;;;;;;;3.83;2.40;;;25.70;80.50;;;;;;4173625;28;20144;-67
2021/08/21 09:00:19;;;;;;;5.97;2.42;;;25.70;79.50;;;;;;4171834;28;20045;-66
2021/08/21 09:02:34;;;;;;;7.57;2.42;;;25.50;79.30;;;;;;4173747;28;20028;-66
2021/08/21 09:04:36;;;;;;;7.35;3.35;;;25.50;78.70;;;;;;4172489;28;20094;-66
2021/08/21 09:06:37;;;;;;;4.88;2.33;;;25.60;79.50;;;;;;4173444;28;20021;-65
2021/08/21 09:08:38;;;;;;;3.75;2.55;;;25.90;78.90;;;;;;4172482;28;20020;-65
2021/08/21 09:10:40;;;;;;;2.55;1.90;;;26.10;78.80;;;;;;4173032;28;20075;-64
2021/08/21 09:12:42;;;;;;;4.85;2.10;;;26.10;77.20;;;;;;4172532;28;20021;-66
2021/08/21 09:14:43;;;;;;;6.28;2.22;;;25.80;76.10;;;;;;4172999;28;20547;-67
2021/08/21 09:16:44;;;;;;;3.40;2.15;;;25.60;76.60;;;;;;4170748;28;20040;-66
2021/08/21 09:19:05;;;;;;;11.70;3.53;;;25.70;76.20;;;;;;4156082;28;20564;-66
2021/08/21 09:21:06;;;;;;;5.40;2.58;;;25.80;75.90;;;;;;4155426;28;20053;-68
2021/08/21 09:23:19;;;;;;;4.13;2.50;;;26.00;77.00;;;;;;4155573;28;20101;-66
2021/08/21 09:25:30;;;;;;;2.63;2.33;;;26.30;76.20;;;;;;4156319;28;20079;-64
2021/08/21 09:27:31;;;;;;;5.82;1.77;;;26.40;76.00;;;;;;4155752;28;20095;-64
2021/08/21 09:29:34;;;;;;;4.68;2.28;;;26.40;76.60;;;;;;4156402;28;20064;-65
2021/08/21 09:31:37;;;;;;;2.22;1.55;;;26.50;76.40;;;;;;4155544;28;20813;-65
2021/08/21 09:33:49;;;;;;;4.18;1.92;;;26.70;76.30;;;;;;4156227;28;20095;-66
2021/08/21 09:35:50;;;;;;;2.15;1.67;;;27.00;76.00;;;;;;4154837;28;20030;-64
2021/08/21 09:37:58;;;;;;;2.60;2.17;;;27.20;75.60;;;;;;4168542;28;20086;-64
2021/08/21 09:40:03;;;;;;;3.45;1.30;;;27.30;75.30;;;;;;4171365;28;20044;-64
2021/08/21 09:42:10;;;;;;;3.30;1.90;;;27.50;74.30;;;;;;4172845;28;20113;-65
2021/08/21 09:44:11;;;;;;;4.47;1.80;;;27.60;73.80;;;;;;4171613;28;20083;-67
2021/08/21 09:46:21;;;;;;;2.33;1.27;;;27.30;73.20;;;;;;4173124;28;20033;-63
2021/08/21 09:48:22;;;;;;;2.72;1.35;;;27.20;72.80;;;;;;4171324;28;20520;-62
2021/08/21 09:50:23;;;;;;;2.40;1.48;;;27.10;73.50;;;;;;4173072;28;20087;-64
2021/08/21 09:52:24;;;;;;;3.15;1.63;;;27.10;73.20;;;;;;4171204;28;20892;-62
2021/08/21 09:54:26;;;;;;;3.72;1.38;;;27.10;73.80;;;;;;4172396;28;20067;-63
2021/08/21 09:56:32;;;;;;;2.13;1.73;;;27.30;72.50;;;;;;4171788;28;20029;-63
2021/08/21 09:58:34;;;;;;;2.67;1.55;;;27.30;72.90;;;;;;4173057;28;20033;-63
2021/08/21 10:00:37;;;;;;;2.13;1.40;;;27.30;72.50;;;;;;4171802;28;20033;-62
2021/08/21 10:02:42;;;;;;;3.35;1.60;;;27.30;72.10;;;;;;4172931;28;20705;-63
2021/08/21 10:04:44;;;;;;;5.15;2.10;;;27.40;72.10;;;;;;4170685;28;20033;-62
2021/08/21 10:06:45;;;;;;;2.50;1.50;;;27.20;71.30;;;;;;4172107;28;20017;-61
2021/08/21 10:08:48;;;;;;;2.70;1.55;;;27.30;71.30;;;;;;4171321;28;20045;-63
2021/08/21 10:10:52;;;;;;;3.10;1.52;;;27.30;70.90;;;;;;4171405;28;20017;-64
2021/08/21 10:12:58;;;;;;;1.63;1.38;;;27.30;70.60;;;;;;4172480;28;20028;-62
2021/08/21 10:15:01;;;;;;;1.42;1.23;;;27.30;70.00;;;;;;4170201;28;20037;-63
2021/08/21 10:17:02;;;;;;;3.58;1.98;;;27.30;70.20;;;;;;4172814;28;20029;-63
2021/08/21 10:19:04;;;;;;;2.88;1.80;;;27.20;70.10;;;;;;4171495;28;20036;-63
2021/08/21 10:21:06;;;;;;;5.22;2.05;;;27.20;70.10;;;;;;4172559;28;20045;-61
2021/08/21 10:23:15;;;;;;;2.75;1.88;;;27.20;70.10;;;;;;4171498;28;20025;-63
2021/08/21 10:25:16;;;;;;;8.25;2.70;;;27.20;69.20;;;;;;4172823;28;20071;-65
2021/08/21 10:27:38;;;;;;;4.75;2.00;;;27.00;68.60;;;;;;4170085;28;20099;-63
2021/08/21 10:29:40;;;;;;;8.55;2.30;;;26.70;66.90;;;;;;4172808;28;20074;-62
2021/08/21 10:31:47;;;;;;;2.08;1.88;;;26.40;68.40;;;;;;4171321;28;20083;-64
2021/08/21 10:33:58;;;;;;;10.40;2.95;;;26.00;68.80;;;;;;4172114;28;20114;-60